Date,TemperatureHighF,TemperatureAvgF,TemperatureLowF,DewpointHighF,DewpointAvgF,DewpointLowF,HumidityHigh,HumidityAvg,HumidityLow,PressureMaxIn,PressureMinIn,WindSpeedMaxMPH,WindSpeedAvgMPH,GustSpeedMaxMPH,PrecipitationSumIn
2014-1-1,62,52,42,56,50,41,96,92,82,30.34,30.06,9,3,13,0.11
2014-1-2,58,51,35,56,46,28,98,85,67,30.30,29.91,19,8,31,0.15
2014-1-3,42,33,27,28,20,16,79,60,37,30.44,30.30,15,6,23,0.00
2014-1-4,58,44,30,47,35,21,87,72,64,30.31,30.07,12,5,14,0.00
2014-1-5,67,56,46,62,51,42,91,85,71,30.07,29.88,18,5,25,0.00
2014-1-6,46,32,23,42,17,2,88,57,32,30.57,30.01,21,13,33,0.00
2014-1-7,31,23,16,9,5,2,64,46,31,30.66,30.53,10,4,20,0.00
2014-1-8,45,32,20,26,16,8,70,53,39,30.55,30.37,8,3,13,0.00
2014-1-9,61,44,34,48,32,17,93,64,44,30.38,30.23,8,4,13,0.00
2014-1-10,68,57,49,67,56,48,98,94,84,30.22,29.94,12,4,19,0.16
2014-1-11,72,65,49,70,55,33,98,75,35,30.10,29.82,15,6,21,0.58
2014-1-12,65,50,36,42,39,35,94,70,35,30.24,30.09,5,1,8,0.00
2014-1-13,61,56,44,60,54,42,98,94,86,30.14,29.88,10,3,17,0.75
2014-1-14,62,54,48,59,45,37,98,75,39,30.10,29.89,10,3,16,0.00
2014-1-15,52,46,36,43,32,19,86,59,28,30.21,30.04,23,7,24,0.00
2014-1-16,51,40,25,42,28,16,88,63,35,30.25,30.11,7,1,12,0.00
2014-1-17,58,50,39,46,33,16,90,57,29,30.24,30.09,13,6,23,0.00
2014-1-18,53,41,25,41,26,15,86,58,27,30.34,30.12,4,1,12,0.00
2014-1-19,61,52,40,48,42,35,94,73,37,30.23,30.09,13,3,28,0.13
2014-1-20,64,48,35,50,41,34,97,80,41,30.15,29.98,5,0,11,0.00
2014-1-21,57,51,33,56,37,21,97,62,31,30.19,29.91,19,9,31,0.01
2014-1-22,48,35,26,32,21,14,89,58,28,30.26,30.16,9,3,16,0.00
2014-1-23,54,42,31,33,25,20,94,55,31,30.54,30.22,12,4,22,0.00
2014-1-24,38,33,31,22,14,9,67,48,35,30.61,30.34,15,5,25,0.00
2014-1-25,57,43,32,41,37,22,95,79,55,30.33,30.02,5,1,11,0.00
2014-1-26,59,47,35,47,40,32,96,79,43,30.08,29.92,7,1,10,0.00
2014-1-27,65,57,47,60,52,26,97,84,43,30.09,29.90,14,4,20,0.15
2014-1-28,46,32,24,27,20,10,93,67,35,30.30,30.07,14,8,21,0.00
2014-1-29,32,25,21,20,12,7,87,59,36,30.44,30.27,12,6,17,0.00
2014-1-30,46,31,19,30,20,8,94,66,45,30.36,30.17,7,2,11,0.04
2014-1-31,60,42,28,44,36,26,97,81,51,30.23,30.09,6,2,10,0.00
2014-2-1,72,56,39,61,53,38,98,89,69,30.12,30.05,11,4,16,0.01
2014-2-2,67,63,58,66,62,56,98,96,91,30.10,29.96,16,8,21,0.01
2014-2-3,69,53,44,68,51,43,98,94,83,30.13,29.95,14,7,20,0.26
2014-2-4,71,58,44,68,56,43,98,95,84,30.10,29.91,16,7,22,0.03
2014-2-5,70,51,38,69,45,31,98,82,62,30.28,29.91,20,10,26,0.11
2014-2-6,38,34,30,32,29,27,91,80,70,30.36,30.26,14,7,21,0.01
2014-2-7,54,41,28,40,34,27,93,77,56,30.35,30.20,10,4,14,0.00
2014-2-8,64,49,40,48,42,37,96,79,51,30.25,30.12,7,2,12,0.10
2014-2-9,67,52,38,53,47,38,98,84,57,30.21,30.07,7,1,13,0.00
2014-2-10,66,56,46,60,54,45,98,92,80,30.14,30.04,8,2,12,0.01
2014-2-11,49,45,43,48,44,41,97,96,93,30.13,30.00,15,6,17,0.21
2014-2-12,46,44,41,45,43,40,98,97,96,30.01,29.81,13,6,22,0.98
2014-2-13,54,43,37,42,38,34,96,84,52,30.06,29.90,13,6,21,0.00
2014-2-14,60,50,36,54,44,35,98,81,50,30.04,29.85,15,2,31,0.01
2014-2-15,58,49,39,46,38,32,96,69,38,30.19,29.93,14,5,20,0.00
2014-2-16,69,52,36,51,40,23,97,73,21,30.22,30.13,4,0,8,0.00
2014-2-17,72,60,45,64,56,44,98,89,70,30.18,30.11,8,2,18,0.00
2014-2-18,74,65,61,66,62,59,98,91,75,30.19,30.09,8,2,13,0.00
2014-2-19,75,68,64,67,65,62,98,92,76,30.12,30.01,9,4,15,0.00
2014-2-20,77,70,65,70,67,64,97,91,78,30.02,29.90,17,10,26,0.00
2014-2-21,70,57,44,69,40,30,97,56,28,30.11,29.86,17,6,26,1.55
2014-2-22,68,54,41,48,38,31,83,56,28,30.17,30.04,9,2,16,0.00
2014-2-23,67,61,54,65,58,45,98,92,67,30.05,29.94,9,2,11,0.30
2014-2-24,71,62,55,62,58,54,98,88,59,30.13,30.00,11,3,14,0.00
2014-2-25,75,62,52,60,55,48,98,82,41,30.09,29.91,6,1,8,0.00
2014-2-26,63,48,39,62,45,31,97,89,72,30.04,29.85,21,7,25,0.90
2014-2-27,52,40,32,32,25,17,87,57,26,30.11,29.99,16,5,20,0.00
2014-2-28,61,47,29,47,34,24,90,64,34,30.15,30.04,8,3,15,0.00
2014-3-1,73,61,51,61,55,47,95,81,66,30.20,30.09,10,2,14,0.00
2014-3-2,74,63,53,62,58,53,98,85,59,30.19,29.98,11,4,14,0.01
2014-3-3,66,51,32,63,47,28,96,87,73,30.19,29.91,20,9,28,0.01
2014-3-4,39,36,32,38,33,29,96,89,82,30.21,30.09,12,5,18,0.20
2014-3-5,61,50,39,52,46,38,96,87,72,30.12,30.00,11,3,12,0.06
2014-3-6,55,51,44,53,50,43,97,96,92,30.01,29.86,9,5,19,0.93
2014-3-7,58,48,41,47,43,39,97,85,65,30.09,29.96,11,4,18,0.00
2014-3-8,67,54,40,54,49,39,98,84,61,30.20,30.08,7,1,14,0.00
2014-3-9,72,61,51,57,54,50,97,81,51,30.24,30.11,7,1,14,0.00
2014-3-10,77,63,50,59,55,49,98,79,47,30.16,29.97,6,1,11,0.00
2014-3-11,68,62,58,65,60,57,97,94,84,29.98,29.71,9,3,17,0.06
2014-3-12,66,61,48,62,55,36,98,81,59,30.11,29.69,18,6,30,0.00
2014-3-13,63,50,33,44,35,28,91,59,32,30.29,30.12,13,4,21,0.00
2014-3-14,68,54,38,52,45,37,96,74,46,30.30,30.15,11,3,19,0.00
2014-3-15,66,60,55,63,58,52,97,93,84,30.13,29.91,15,4,18,0.21
2014-3-16,70,65,60,68,64,59,98,96,89,29.89,29.62,19,5,33,1.91
2014-3-17,60,52,46,59,50,42,98,92,83,29.84,29.65,19,5,27,0.05
2014-3-18,58,49,43,51,45,41,97,87,69,30.04,29.82,6,2,17,0.00
2014-3-19,70,57,43,58,51,43,98,83,58,30.15,30.02,6,1,16,0.01
2014-3-20,75,62,52,56,53,48,98,76,38,30.14,30.03,10,3,16,0.00
2014-3-21,76,62,48,56,47,38,96,62,33,30.13,30.01,7,2,14,0.00
2014-3-22,79,64,54,64,58,53,98,83,41,30.07,29.97,7,1,13,0.00
2014-3-23,71,64,54,67,60,47,98,88,70,30.15,29.96,15,5,23,0.12
2014-3-24,66,57,50,51,46,41,87,68,49,30.15,29.96,9,3,16,0.00
2014-3-25,63,55,46,51,33,23,83,48,23,30.27,29.99,22,8,32,0.00
2014-3-26,57,46,34,38,28,23,84,52,28,30.40,30.23,10,2,16,0.00
2014-3-27,69,59,43,62,52,39,95,77,55,30.25,30.04,16,7,26,0.09
2014-3-28,65,62,58,64,61,58,98,97,93,30.06,29.89,23,6,30,2.53
2014-3-29,71,63,56,62,55,42,99,78,45,30.17,29.86,18,6,26,1.17
2014-3-30,70,55,42,52,44,37,97,68,32,30.26,30.13,11,3,17,0.00
2014-3-31,74,58,43,52,46,41,98,70,31,30.19,30.09,11,2,13,0.00
2014-4-1,75,60,47,62,54,46,97,82,49,30.18,30.09,12,2,15,0.00
2014-4-2,79,68,59,67,63,58,98,86,62,30.13,30.07,10,5,21,0.00
2014-4-3,79,71,66,68,65,64,96,83,64,30.07,29.96,19,7,24,0.00
2014-4-4,80,70,65,69,66,62,96,86,59,30.05,29.90,11,4,32,0.07
2014-4-5,67,62,58,64,58,52,97,87,68,30.06,29.96,7,3,14,0.74
2014-4-6,73,64,56,72,63,55,98,95,92,29.99,29.76,11,5,21,0.09
2014-4-7,78,70,59,72,66,51,98,87,70,29.86,29.66,20,6,28,2.19
2014-4-8,64,56,48,53,49,46,95,78,56,29.98,29.83,18,5,22,0.26
2014-4-9,71,59,49,54,48,39,93,71,32,30.20,29.99,13,5,21,0.00
2014-4-10,73,61,48,58,51,46,98,74,38,30.27,30.20,8,1,15,0.00
2014-4-11,76,64,52,62,57,51,98,82,57,30.25,30.13,9,2,14,0.00
2014-4-12,78,67,57,64,58,53,98,74,44,30.18,30.07,12,3,16,0.01
2014-4-13,80,70,58,66,63,56,98,81,54,30.10,29.96,15,6,21,0.00
2014-4-14,78,69,65,69,66,63,98,90,74,29.96,29.74,14,4,24,5.46
2014-4-15,65,52,43,64,45,35,98,79,45,30.18,29.77,20,9,31,0.55
2014-4-16,63,50,38,49,40,32,92,68,44,30.25,30.12,8,2,16,0.00
2014-4-17,71,60,46,60,54,45,96,81,61,30.24,30.14,13,4,18,0.10
2014-4-18,62,59,57,59,57,54,95,92,86,30.16,30.02,14,7,25,0.63
2014-4-19,56,56,55,54,54,53,95,92,90,30.08,30.06,9,6,16,0.00
2014-4-21,74,68,62,63,61,59,95,79,66,30.15,30.01,6,1,14,0.00
2014-4-22,78,67,56,68,63,56,98,87,66,30.00,29.85,6,1,12,0.00
2014-4-23,82,70,58,68,64,58,98,84,57,29.97,29.88,7,1,11,0.01
2014-4-24,79,70,61,70,65,60,98,87,68,29.99,29.89,5,1,12,0.00
2014-4-25,85,75,69,72,69,67,96,84,62,29.98,29.91,7,2,13,0.00
2014-4-26,83,75,66,74,70,65,98,86,67,30.01,29.92,10,2,13,0.00
2014-4-27,82,75,70,72,70,68,98,86,65,29.95,29.83,15,7,24,0.00
2014-4-28,84,78,74,76,74,72,94,87,76,29.86,29.68,16,7,26,0.00
2014-4-29,78,67,62,75,66,61,98,97,85,29.81,29.67,15,6,32,10.70
2014-4-30,81,73,64,66,60,53,95,66,47,30.02,29.91,8,3,17,2.89
2014-5-1,71,62,55,57,51,48,82,69,47,30.10,29.96,10,3,18,0.00
2014-5-2,74,66,58,59,54,47,94,70,38,30.02,29.92,8,1,20,0.00
2014-5-3,79,67,53,61,54,47,95,68,35,30.10,29.99,6,1,13,0.00
2014-5-4,85,71,57,66,60,51,98,73,33,30.14,30.04,6,1,9,0.00
2014-5-5,85,73,61,66,60,52,97,68,32,30.08,29.98,6,1,10,0.00
2014-5-6,81,71,61,67,61,50,96,73,34,30.04,29.96,5,1,11,0.00
2014-5-7,83,72,60,69,64,59,98,78,53,30.11,29.99,12,3,16,0.00
2014-5-8,85,74,62,72,67,62,98,80,53,30.14,30.05,9,4,17,0.00
2014-5-9,79,74,67,74,71,66,96,90,81,30.10,30.00,11,5,16,0.13
2014-5-10,82,75,67,74,71,66,98,90,75,30.06,29.98,12,3,16,0.87
2014-5-11,85,78,74,74,73,71,97,86,66,30.09,30.00,12,6,21,0.00
2014-5-12,86,78,72,74,71,68,96,81,58,30.14,30.01,14,5,16,0.00
2014-5-13,86,76,69,72,70,68,98,82,58,30.09,30.00,12,3,18,0.00
2014-5-14,80,70,62,74,68,59,98,94,83,30.05,29.91,16,3,22,2.49
2014-5-15,70,61,53,58,50,47,95,71,45,30.16,30.00,19,8,26,0.00
2014-5-16,77,65,48,62,54,48,97,70,43,30.20,30.08,8,2,14,0.00
2014-5-17,81,72,63,62,60,53,90,67,40,30.18,30.11,7,1,13,0.00
2014-5-18,82,70,58,66,61,55,97,75,39,30.19,30.12,6,1,12,0.00
2014-5-19,84,72,59,68,62,54,97,74,37,30.19,30.13,8,1,11,0.00
2014-5-20,85,72,59,71,65,59,98,80,48,30.21,30.13,11,2,14,0.00
2014-5-21,85,74,64,72,66,62,98,79,48,30.21,30.13,5,1,13,0.01
2014-5-22,87,75,62,72,66,59,98,77,39,30.20,30.08,7,1,13,0.00
2014-5-23,88,77,67,72,68,63,97,76,44,30.15,30.04,7,1,13,0.00
2014-5-24,89,78,71,73,70,56,93,77,33,30.12,30.03,7,2,12,0.00
2014-5-25,89,78,67,74,68,57,98,75,37,30.09,30.03,8,1,12,0.00
2014-5-26,87,77,65,74,70,64,96,80,61,30.16,30.07,6,1,12,0.00
2014-5-27,87,79,72,74,72,70,96,80,57,30.12,29.99,11,3,19,0.00
2014-5-28,83,76,69,74,71,68,97,86,70,29.99,29.92,14,5,22,2.74
2014-5-29,77,71,68,72,69,68,98,93,83,29.99,29.91,13,5,18,1.35
2014-5-30,84,74,69,72,70,68,96,89,64,30.00,29.93,12,5,25,0.60
2014-5-31,81,74,71,75,71,70,98,91,74,30.02,29.96,12,3,17,0.40
2014-6-1,85,77,70,74,72,69,97,85,66,30.07,29.99,14,6,17,0.01
2014-6-2,82,75,71,74,71,69,97,89,74,30.09,30.03,10,5,17,0.14
2014-6-3,81,75,70,74,72,70,97,91,77,30.08,29.99,7,2,12,0.22
2014-6-4,86,77,68,74,71,68,98,83,60,30.00,29.91,9,2,14,0.01
2014-6-5,86,78,69,75,72,68,97,83,66,29.95,29.90,6,1,10,0.00
2014-6-6,89,80,72,77,74,71,97,84,60,29.99,29.90,3,1,13,0.00
2014-6-7,90,83,77,80,78,76,95,85,70,30.00,29.90,6,1,14,0.00
2014-6-8,91,83,76,78,76,75,97,82,63,29.98,29.88,7,2,14,0.00
2014-6-9,89,83,78,78,76,74,92,79,68,29.94,29.87,7,2,15,0.00
2014-6-10,87,79,69,78,74,68,97,85,69,29.94,29.88,10,3,18,1.98
2014-6-11,84,76,69,76,71,67,97,84,66,29.91,29.82,10,3,17,0.23
2014-6-12,88,81,71,75,71,66,97,74,51,29.95,29.86,6,1,11,0.00
2014-6-13,81,75,69,76,71,68,98,88,68,30.02,29.88,12,1,28,0.97
2014-6-14,88,78,67,76,72,67,98,83,59,30.02,29.95,6,1,11,0.00
2014-6-15,89,79,70,76,72,69,97,81,59,30.11,29.98,5,1,10,0.00
2014-6-16,89,81,72,77,74,70,97,81,56,30.17,30.08,4,1,10,0.00
2014-6-17,91,82,72,77,73,69,97,77,49,30.16,30.05,6,1,11,0.00
2014-6-18,91,81,73,76,74,72,96,81,60,30.12,30.04,6,1,11,0.00
2014-6-19,90,79,72,78,74,71,96,85,63,30.13,30.05,8,1,19,0.37
2014-6-20,91,78,71,77,74,69,98,88,64,30.10,29.99,17,2,34,0.76
2014-6-21,91,82,72,79,75,72,98,80,58,30.03,29.90,6,1,10,0.01
2014-6-22,90,80,73,78,75,70,96,85,63,29.98,29.86,10,2,17,0.04
2014-6-23,82,75,71,76,72,69,97,92,82,30.03,29.90,4,1,9,0.10
2014-6-24,90,83,74,80,76,70,97,80,64,30.08,30.02,8,2,15,0.00
2014-6-25,88,80,70,77,74,69,97,83,60,30.12,30.03,6,1,25,0.18
2014-6-26,88,77,72,76,73,68,96,87,62,30.12,29.99,7,1,21,0.25
2014-6-27,89,80,73,79,74,71,97,84,63,30.13,30.01,7,2,17,0.23
2014-6-28,89,80,72,80,75,70,95,85,68,30.15,30.04,6,2,13,0.00
2014-6-29,91,83,76,80,77,75,97,82,62,30.18,30.08,6,1,16,0.00
2014-6-30,90,84,79,80,77,76,94,82,66,30.10,29.98,4,1,8,0.00
2014-7-1,92,85,78,80,78,76,95,81,59,30.02,29.91,11,2,13,0.00
2014-7-2,93,85,77,79,76,72,92,77,59,30.00,29.92,8,2,19,0.00
2014-7-3,89,80,71,76,71,69,94,77,54,30.07,29.96,9,3,14,0.00
2014-7-4,87,79,70,71,65,59,90,64,39,30.16,30.07,10,3,14,0.00
2014-7-5,88,77,66,70,66,63,92,72,50,30.16,30.06,5,1,10,0.00
2014-7-6,89,80,71,75,69,66,93,71,48,30.08,29.98,6,2,11,0.00
2014-7-7,91,81,70,74,71,68,95,72,49,30.08,29.99,6,1,10,0.00
2014-7-8,90,82,75,75,73,70,90,75,54,30.11,30.01,8,1,18,0.00
2014-7-9,88,80,75,79,74,71,91,83,70,30.09,30.01,11,2,14,0.00
2014-7-10,89,77,72,77,73,70,97,88,66,30.10,30.03,17,2,27,0.36
2014-7-11,91,79,73,79,74,70,98,85,60,30.14,30.07,8,1,20,0.02
2014-7-12,92,79,73,79,74,71,97,84,56,30.14,30.05,18,2,22,0.46
2014-7-13,88,80,73,78,75,71,95,85,70,30.12,30.01,6,1,11,0.22
2014-7-14,89,82,73,78,75,72,97,81,64,30.06,29.95,7,1,14,0.01
2014-7-15,86,79,74,78,75,73,97,89,73,29.99,29.87,14,2,18,0.27
2014-7-16,87,78,72,74,70,63,97,78,50,29.96,29.88,10,2,16,0.04
2014-7-17,87,76,65,70,65,60,92,71,47,30.02,29.95,6,1,13,0.00
2014-7-18,83,74,70,78,72,68,97,92,77,30.03,29.96,9,2,24,1.94
2014-7-19,84,78,74,78,75,73,97,92,80,30.04,29.95,10,2,17,1.72
2014-7-20,89,80,76,78,76,74,97,88,65,30.04,29.94,8,2,16,0.19
2014-7-21,89,81,75,78,75,72,97,85,59,30.03,29.95,8,1,18,0.00
2014-7-22,87,79,72,78,75,70,97,88,69,30.05,29.95,7,1,12,0.14
2014-7-23,86,77,70,77,73,69,97,87,68,30.07,29.96,8,1,10,0.01
2014-7-24,88,80,72,78,74,71,97,84,68,30.02,29.93,6,1,11,0.03
2014-7-25,90,80,74,79,76,72,97,87,67,30.03,29.96,11,1,17,0.87
2014-7-26,90,83,78,81,78,73,96,85,71,30.08,29.99,5,1,10,0.00
2014-7-27,92,84,79,81,79,76,93,83,66,30.08,29.99,7,2,12,0.00
2014-7-28,93,84,76,82,78,74,96,84,64,30.04,29.91,9,3,14,0.33
2014-7-29,87,79,71,75,70,66,96,75,50,30.04,29.94,8,3,13,0.00
2014-7-30,84,76,67,66,62,57,93,64,40,30.05,29.98,7,3,14,0.00
2014-7-31,88,76,64,68,65,59,94,71,40,30.04,29.96,7,2,12,0.00
2014-8-1,84,77,70,74,69,65,92,77,61,30.01,29.95,5,1,8,0.00
2014-8-2,92,81,72,77,73,71,95,78,55,30.01,29.93,5,0,7,0.00
2014-8-3,88,80,75,77,74,72,95,83,60,30.01,29.93,6,1,10,0.00
2014-8-4,89,79,73,77,74,68,97,83,64,30.03,29.93,15,2,19,0.00
2014-8-5,91,81,72,78,74,70,95,79,59,30.07,29.97,5,0,8,0.00
2014-8-6,92,82,74,78,76,72,97,83,59,30.06,29.97,5,1,11,0.00
2014-8-7,91,84,77,80,78,75,95,83,69,30.03,29.91,6,1,13,0.00
2014-8-8,91,82,77,80,77,75,96,86,67,30.03,29.93,7,1,13,0.00
2014-8-9,81,79,73,78,76,69,95,91,80,30.00,29.97,7,1,21,1.01
2014-8-11,92,83,75,78,75,73,96,79,60,30.03,29.92,9,3,29,0.07
2014-8-12,89,79,72,80,74,71,97,86,71,29.96,29.89,21,1,26,0.03
2014-8-13,90,81,73,78,74,69,97,81,62,29.99,29.91,8,2,13,0.00
2014-8-14,88,79,70,74,69,64,94,72,56,30.03,29.94,5,1,9,0.00
2014-8-15,89,79,69,73,69,67,96,75,49,30.04,29.94,6,1,11,0.00
2014-8-16,90,80,71,79,75,70,96,83,65,30.06,29.97,6,1,14,0.00
2014-8-17,88,80,76,80,76,73,96,88,74,30.07,30.00,7,1,19,0.07
2014-8-18,89,80,74,81,77,69,98,90,75,30.03,29.93,19,1,32,2.55
2014-8-19,90,83,69,81,78,67,95,84,69,30.05,29.91,9,2,18,0.58